Rodey, New Mexico
Current Conditions -  °F | °C
As of 4:55 AM on Sunday 25 Jan 2015 (Local Time) from KLRU Reporting Station
Clear Clear  
Wind Chill: 24°   Ceiling: Unl
Heat Index: 31°   Visibility: 10mi
Dew Point: 24°   Wind: 7mph
Humidity: 74%   Direction: 330°NNW
Pressure: 30.21"   Gusts: NA
Location:  32.586°N, 107.171°W
Report Text: KLRU 251155Z AUTO 33006KT 10SM CLR 00/M05 A3021 RMK AO2 T10051047 10020 21011
Loading
Personal Weather Stations






























Interactive Weather Map New forecast layout! Learn more

10-Day Weather Forecast

Advertisements
Track Severe Weather on mobile